Time;durP1;ratioP1;P1;durP2;ratioP2;P2;SDS_P1;SDS_P2;PMS_P1;PMS_P2;Temp;Humidity;BMP_temperature;BMP_pressure;BME280_temperature;BME280_humidity;BME280_pressure;Samples;Min_cycle;Max_cycle;Signal;HPM_P1;HPM_P2
2022/08/19 00:00:23;;;;;;;;;11.00;11.00;;;;;-145.03;100.00;62373.16;5078197;28;46179;-73
2022/08/19 00:02:48;;;;;;;;;14.00;9.33;;;;;-145.03;100.00;62373.16;5076455;28;45393;-73
2022/08/19 00:05:15;;;;;;;;;11.33;9.67;;;;;-145.03;100.00;62373.16;5078330;28;45489;-73
2022/08/19 00:07:42;;;;;;;;;10.33;10.33;;;;;-145.03;100.00;62373.16;5078653;28;45596;-73
2022/08/19 00:10:09;;;;;;;;;9.33;7.67;;;;;-145.03;100.00;62373.16;5078131;28;46378;-73
2022/08/19 00:12:35;;;;;;;;;12.00;10.33;;;;;-145.03;100.00;62373.16;5078344;28;45670;-73
2022/08/19 00:15:01;;;;;;;;;6.00;4.67;;;;;-145.03;100.00;62373.16;5078362;28;45492;-73
2022/08/19 00:17:26;;;;;;;;;7.33;7.33;;;;;-145.03;100.00;62373.16;5077951;28;45502;-73
2022/08/19 00:19:52;;;;;;;;;9.00;9.00;;;;;-145.03;100.00;62373.16;5077949;28;46303;-73
2022/08/19 00:22:17;;;;;;;;;9.67;8.00;;;;;-145.03;100.00;62373.16;5078057;27;45427;-73
2022/08/19 00:24:45;;;;;;;;;12.00;8.33;;;;;-145.03;100.00;62373.16;5078093;28;45469;-73
2022/08/19 00:27:11;;;;;;;;;7.00;7.00;;;;;-145.03;100.00;62373.16;5078256;28;45452;-85
2022/08/19 00:29:37;;;;;;;;;8.67;8.67;;;;;-145.03;100.00;62373.16;5078033;28;46985;-85
2022/08/19 00:32:03;;;;;;;;;7.67;7.33;;;;;-145.03;100.00;62373.16;5077514;28;45353;-85
2022/08/19 00:34:29;;;;;;;;;6.33;6.33;;;;;-145.03;100.00;62373.16;5078030;27;45317;-85
2022/08/19 00:36:56;;;;;;;;;8.33;8.33;;;;;-145.03;100.00;62373.16;5078126;27;45567;-85
2022/08/19 00:39:22;;;;;;;;;9.00;9.00;;;;;-145.03;100.00;62373.16;5077455;27;46241;-85
2022/08/19 00:41:48;;;;;;;;;11.33;8.33;;;;;-145.03;100.00;62373.16;5077507;28;45400;-85
2022/08/19 00:44:25;;;;;;;;;11.00;10.00;;;;;-145.03;100.00;62373.16;5077782;27;45466;-85
2022/08/19 00:46:52;;;;;;;;;8.33;8.33;;;;;-145.03;100.00;62373.16;5077872;27;45422;-85
2022/08/19 00:49:27;;;;;;;;;8.67;7.00;;;;;-145.03;100.00;62373.16;5077118;28;46193;-85
2022/08/19 00:52:03;;;;;;;;;8.33;8.00;;;;;-145.03;100.00;62373.16;5077277;27;45384;-85
2022/08/19 00:54:31;;;;;;;;;10.67;9.33;;;;;-145.03;100.00;62373.16;5077522;28;45512;-85
2022/08/19 00:56:57;;;;;;;;;13.67;10.00;;;;;-145.03;100.00;62373.16;5077953;28;45453;-85
2022/08/19 00:59:23;;;;;;;;;9.33;8.33;;;;;-145.03;100.00;62373.16;5077148;28;46328;-85
2022/08/19 01:01:49;;;;;;;;;9.67;9.67;;;;;-145.03;100.00;62373.16;5077237;28;45428;-85
2022/08/19 01:04:14;;;;;;;;;12.00;9.67;;;;;-145.03;100.00;62373.16;5093001;27;45412;-85
2022/08/19 01:06:41;;;;;;;;;11.33;9.67;;;;;-145.03;100.00;62373.16;5077634;28;45445;-85
2022/08/19 01:09:07;;;;;;;;;9.67;8.67;;;;;-145.03;100.00;62373.16;5077340;28;46137;-85
2022/08/19 01:11:37;;;;;;;;;8.67;8.00;;;;;-145.03;100.00;62373.16;5077151;28;45429;-85
2022/08/19 01:14:03;;;;;;;;;9.33;9.00;;;;;-145.03;100.00;62373.16;5077020;27;45425;-85
2022/08/19 01:16:30;;;;;;;;;10.33;9.00;;;;;-145.03;100.00;62373.16;5077648;28;45502;-85
2022/08/19 01:18:56;;;;;;;;;10.00;9.00;;;;;-145.03;100.00;62373.16;5077127;28;45613;-85
2022/08/19 01:21:32;;;;;;;;;12.00;10.00;;;;;-145.03;100.00;62373.16;5076976;28;45798;-85
2022/08/19 01:23:58;;;;;;;;;10.33;8.67;;;;;-145.03;100.00;62373.16;5077173;28;45438;-85
2022/08/19 01:26:25;;;;;;;;;13.00;9.00;;;;;-145.03;100.00;62373.16;5077391;28;45450;-84
2022/08/19 01:28:54;;;;;;;;;10.67;9.00;;;;;-145.03;100.00;62373.16;5076697;28;45913;-84
2022/08/19 01:31:23;;;;;;;;;11.67;10.33;;;;;-145.03;100.00;62373.16;5076830;27;45517;-85
2022/08/19 01:33:51;;;;;;;;;11.00;10.00;;;;;-145.03;100.00;62373.16;5077076;27;45407;-84
2022/08/19 01:36:34;;;;;;;;;10.67;9.00;;;;;-145.03;100.00;62373.16;5076049;28;45502;-84
2022/08/19 01:39:01;;;;;;;;;8.33;7.67;;;;;-145.03;100.00;62373.16;5076835;28;45460;-84
2022/08/19 01:41:27;;;;;;;;;11.00;9.33;;;;;-145.03;100.00;62373.16;5076457;27;45414;-84
2022/08/19 01:43:53;;;;;;;;;11.00;10.00;;;;;-145.03;100.00;62373.16;5076303;27;45369;-84
2022/08/19 01:46:19;;;;;;;;;11.33;11.33;;;;;-145.03;100.00;62373.16;5077183;28;45421;-84
2022/08/19 01:48:45;;;;;;;;;9.33;8.67;;;;;-145.03;100.00;62373.16;5076520;28;47200;-84
2022/08/19 01:51:12;;;;;;;;;11.67;10.00;;;;;-145.03;100.00;62373.16;5076388;28;45672;-84
2022/08/19 01:53:38;;;;;;;;;9.33;8.33;;;;;-145.03;100.00;62373.16;5076682;28;45455;-84
2022/08/19 01:56:04;;;;;;;;;12.33;11.00;;;;;-145.03;100.00;62373.16;5076967;28;45901;-84
2022/08/19 01:58:35;;;;;;;;;8.33;8.33;;;;;-145.03;100.00;62373.16;5076142;28;46372;-84
2022/08/19 02:01:02;;;;;;;;;12.67;9.00;;;;;-145.03;100.00;62373.16;5076449;28;45465;-85
2022/08/19 02:03:28;;;;;;;;;11.33;11.00;;;;;-145.03;100.00;62373.16;5076021;28;45435;-84
2022/08/19 02:06:02;;;;;;;;;6.00;6.00;;;;;-145.03;100.00;62373.16;5076769;28;45456;-84
2022/08/19 02:08:29;;;;;;;;;11.00;9.67;;;;;-145.03;100.00;62373.16;5075620;28;46367;-84
2022/08/19 02:10:55;;;;;;;;;8.00;6.33;;;;;-145.03;100.00;62373.16;5076252;28;45452;-84
2022/08/19 02:13:21;;;;;;;;;9.33;9.00;;;;;-145.03;100.00;62373.16;5076255;28;45441;-84
2022/08/19 02:15:47;;;;;;;;;13.67;10.67;;;;;-145.03;100.00;62373.16;5076501;28;45385;-84
2022/08/19 02:18:13;;;;;;;;;8.33;8.00;;;;;-145.03;100.00;62373.16;5076142;28;47307;-84
2022/08/19 02:20:40;;;;;;;;;9.00;9.00;;;;;-145.03;100.00;62373.16;5076265;27;45614;-84
2022/08/19 02:23:07;;;;;;;;;10.67;10.00;;;;;-145.03;100.00;62373.16;5076397;28;45503;-84
2022/08/19 02:25:32;;;;;;;;;11.67;8.67;;;;;-145.03;100.00;62373.16;5076585;28;45491;-84
2022/08/19 02:27:58;;;;;;;;;11.33;11.33;;;;;-145.03;100.00;62373.16;5075829;28;45950;-84
2022/08/19 02:30:24;;;;;;;;;9.33;8.00;;;;;-145.03;100.00;62373.16;5076182;28;45453;-84
2022/08/19 02:32:50;;;;;;;;;12.33;10.33;;;;;-145.03;100.00;62373.16;5074815;28;45482;-84
2022/08/19 02:35:16;;;;;;;;;11.67;10.67;;;;;-145.03;100.00;62373.16;5076387;28;45381;-84
2022/08/19 02:40:34;;;;;;;;;10.67;8.67;;;;;-145.03;100.00;62373.16;5075813;28;45477;-84
2022/08/19 02:43:00;;;;;;;;;10.33;9.00;;;;;-145.03;100.00;62373.16;5075783;27;45625;-84
2022/08/19 02:45:26;;;;;;;;;10.00;8.33;;;;;-145.03;100.00;62373.16;5076261;28;45415;-84
2022/08/19 02:47:51;;;;;;;;;11.00;9.67;;;;;-145.03;100.00;62373.16;5075885;28;45889;-84
2022/08/19 02:50:17;;;;;;;;;10.67;9.33;;;;;-145.03;100.00;62373.16;5074245;28;54953;-84
2022/08/19 02:52:42;;;;;;;;;10.00;8.33;;;;;-145.03;100.00;62373.16;5075751;28;45429;-84
2022/08/19 02:55:08;;;;;;;;;8.00;8.00;;;;;-145.03;100.00;62373.16;5076001;27;45412;-84
2022/08/19 02:57:34;;;;;;;;;8.33;8.33;;;;;-145.03;100.00;62373.16;5075663;28;46245;-84
2022/08/19 03:00:00;;;;;;;;;9.00;9.00;;;;;-145.03;100.00;62373.16;5075820;28;45501;-84
2022/08/19 03:02:25;;;;;;;;;9.00;8.00;;;;;-145.03;100.00;62373.16;5075988;27;45540;-84
2022/08/19 03:04:50;;;;;;;;;10.67;9.67;;;;;-145.03;100.00;62373.16;5075995;28;45432;-84
2022/08/19 03:07:18;;;;;;;;;9.33;8.00;;;;;-145.03;100.00;62373.16;5075582;28;46390;-84
2022/08/19 03:09:43;;;;;;;;;8.00;8.00;;;;;-145.03;100.00;62373.16;5074258;28;45456;-84
2022/08/19 03:12:09;;;;;;;;;14.67;11.00;;;;;-145.03;100.00;62373.16;5075513;28;45468;-84
2022/08/19 03:14:35;;;;;;;;;8.33;8.33;;;;;-145.03;100.00;62373.16;5075760;28;45478;-84
2022/08/19 03:17:03;;;;;;;;;10.00;8.33;;;;;-145.03;100.00;62373.16;5075562;28;47359;-84
2022/08/19 03:19:28;;;;;;;;;12.67;11.33;;;;;-145.03;100.00;62373.16;5075474;27;45402;-84
2022/08/19 03:21:55;;;;;;;;;7.00;7.00;;;;;-145.03;100.00;62373.16;5077583;27;45365;-84
2022/08/19 03:24:20;;;;;;;;;9.00;9.00;;;;;-145.03;100.00;62373.16;5079249;28;45506;-84
2022/08/19 03:26:51;;;;;;;;;9.33;8.67;;;;;-145.03;100.00;62373.16;5078684;28;47500;-85
2022/08/19 03:29:19;;;;;;;;;8.00;8.00;;;;;-145.03;100.00;62373.16;5077381;28;45888;-85
2022/08/19 03:31:45;;;;;;;;;11.00;9.33;;;;;-145.03;100.00;62373.16;5078921;28;45503;-85
2022/08/19 03:34:13;;;;;;;;;8.00;8.00;;;;;-145.03;100.00;62373.16;5079260;28;45429;-85
2022/08/19 03:36:39;;;;;;;;;10.00;10.00;;;;;-145.03;100.00;62373.16;5078412;28;47131;-85
2022/08/19 03:39:04;;;;;;;;;7.00;7.00;;;;;-145.03;100.00;62373.16;5078477;27;45531;-85
2022/08/19 03:41:36;;;;;;;;;11.00;9.67;;;;;-145.03;100.00;62373.16;5078675;28;45819;-85
2022/08/19 03:44:04;;;;;;;;;12.33;11.00;;;;;-145.03;100.00;62373.16;5078724;27;45432;-85
2022/08/19 03:46:32;;;;;;;;;9.00;8.00;;;;;-145.03;100.00;62373.16;5078389;28;46296;-85
2022/08/19 03:49:00;;;;;;;;;10.33;8.67;;;;;-145.03;100.00;62373.16;5078352;28;45424;-85
2022/08/19 03:51:28;;;;;;;;;9.00;9.00;;;;;-145.03;100.00;62373.16;5078559;28;45599;-85
2022/08/19 03:53:54;;;;;;;;;9.33;8.00;;;;;-145.03;100.00;62373.16;5078694;28;45420;-85
2022/08/19 03:56:20;;;;;;;;;9.00;8.33;;;;;-145.03;100.00;62373.16;5078217;28;47251;-85
2022/08/19 03:58:46;;;;;;;;;7.33;6.00;;;;;-145.03;100.00;62373.16;5078134;27;45612;-85
2022/08/19 04:01:17;;;;;;;;;13.67;9.00;;;;;-145.03;100.00;62373.16;5078317;28;45531;-85
2022/08/19 04:03:46;;;;;;;;;9.00;7.33;;;;;-145.03;100.00;62373.16;5077254;28;45596;-85
2022/08/19 04:06:21;;;;;;;;;11.00;8.33;;;;;-145.03;100.00;62373.16;5078532;28;45630;-85
2022/08/19 04:08:48;;;;;;;;;8.33;7.33;;;;;-145.03;100.00;62373.16;5078091;28;45668;-85
2022/08/19 04:11:17;;;;;;;;;10.33;8.67;;;;;-145.03;100.00;62373.16;5077874;28;45429;-85
2022/08/19 04:13:45;;;;;;;;;6.00;6.00;;;;;-145.03;100.00;62373.16;5077308;28;45666;-85
2022/08/19 04:16:11;;;;;;;;;5.33;5.33;;;;;-145.03;100.00;62373.16;5077851;27;47152;-85
2022/08/19 04:18:38;;;;;;;;;7.33;5.67;;;;;-145.03;100.00;62373.16;5078085;28;45412;-85
2022/08/19 04:21:04;;;;;;;;;11.33;7.33;;;;;-145.03;100.00;62373.16;5078120;28;45512;-85
2022/08/19 04:23:30;;;;;;;;;9.33;7.67;;;;;-145.03;100.00;62373.16;5077890;28;45428;-85
2022/08/19 04:25:56;;;;;;;;;10.00;8.00;;;;;-145.03;100.00;62373.16;5078007;28;46178;-84
2022/08/19 04:28:23;;;;;;;;;6.00;6.00;;;;;-145.03;100.00;62373.16;5077981;28;45448;-85
2022/08/19 04:30:51;;;;;;;;;7.67;7.33;;;;;-145.03;100.00;62373.16;5077860;27;45397;-84
2022/08/19 04:33:20;;;;;;;;;8.33;6.00;;;;;-145.03;100.00;62373.16;5077719;28;45373;-85
2022/08/19 04:35:48;;;;;;;;;7.00;6.00;;;;;-145.03;100.00;62373.16;5077638;28;46386;-84
2022/08/19 04:38:15;;;;;;;;;4.00;4.00;;;;;-145.03;100.00;62373.16;5077586;28;45452;-85
2022/08/19 04:43:27;;;;;;;;;5.00;5.00;;;;;-145.03;100.00;62373.16;5077867;27;45527;-84
2022/08/19 04:45:52;;;;;;;;;8.67;7.00;;;;;-145.03;100.00;62373.16;5077451;27;47242;-85
2022/08/19 04:48:25;;;;;;;;;5.00;5.00;;;;;-145.03;100.00;62373.16;5077454;28;45467;-85
2022/08/19 04:50:57;;;;;;;;;6.67;5.00;;;;;-145.03;100.00;62373.16;5077434;28;45474;-84
2022/08/19 04:53:28;;;;;;;;;7.00;7.00;;;;;-145.03;100.00;62373.16;5077695;28;45436;-84
2022/08/19 04:55:56;;;;;;;;;7.00;6.00;;;;;-145.03;100.00;62373.16;5077395;28;46385;-84
2022/08/19 04:58:21;;;;;;;;;6.75;5.00;;;;;-145.03;100.00;62373.16;5077656;28;45503;-84
2022/08/19 05:00:46;;;;;;;;;5.00;5.00;;;;;-145.03;100.00;62373.16;5077337;28;45483;-84
2022/08/19 05:03:12;;;;;;;;;3.00;3.00;;;;;-145.03;100.00;62373.16;5077761;28;45463;-84
2022/08/19 05:05:40;;;;;;;;;3.67;3.67;;;;;-145.03;100.00;62373.16;5077011;27;47403;-84
2022/08/19 05:08:05;;;;;;;;;3.25;3.25;;;;;-145.03;100.00;62373.16;5076032;28;45452;-84
2022/08/19 05:10:31;;;;;;;;;6.33;6.33;;;;;-145.03;100.00;62373.16;5077472;28;45416;-84
2022/08/19 05:12:57;;;;;;;;;5.00;4.75;;;;;-145.03;100.00;62373.16;5077463;28;45392;-84
2022/08/19 05:15:22;;;;;;;;;4.25;3.00;;;;;-145.03;100.00;62373.16;5076817;28;46245;-84
2022/08/19 05:22:32;;;;;;;;;3.75;3.75;;;;;-145.03;100.00;62373.16;5077113;28;45586;-84
2022/08/19 05:23:17;;;;;;;;;3.75;3.75;;;;;-145.03;100.00;62373.16;5077476;28;45357;-84
2022/08/19 05:25:43;;;;;;;;;4.00;4.00;;;;;-145.03;100.00;62373.16;5076920;28;47100;-85
2022/08/19 05:28:08;;;;;;;;;6.00;5.00;;;;;-145.03;100.00;62373.16;5076939;28;45385;-84
2022/08/19 05:30:34;;;;;;;;;3.00;3.00;;;;;-145.03;100.00;62373.16;5077055;28;45391;-84
2022/08/19 05:32:59;;;;;;;;;6.67;5.00;;;;;-145.03;100.00;62373.16;5077373;27;45420;-84
2022/08/19 05:35:25;;;;;;;;;3.00;3.00;;;;;-145.03;100.00;62373.16;5076561;28;46125;-84
2022/08/19 05:37:50;;;;;;;;;3.00;3.00;;;;;-145.03;100.00;62373.16;5092653;27;45361;-84
2022/08/19 05:40:16;;;;;;;;;4.00;3.00;;;;;-145.03;100.00;62373.16;5076930;28;45436;-84
2022/08/19 05:42:42;;;;;;;;;3.00;3.00;;;;;-145.03;100.00;62373.16;5076714;27;45507;-84
2022/08/19 05:45:08;;;;;;;;;3.33;3.33;;;;;-145.03;100.00;62373.16;5075488;28;46946;-84
2022/08/19 05:47:33;;;;;;;;;3.50;3.50;;;;;-145.03;100.00;62373.16;5076712;28;45522;-84
2022/08/19 05:50:01;;;;;;;;;4.00;3.00;;;;;-145.03;100.00;62373.16;5076914;28;45492;-84
2022/08/19 05:52:27;;;;;;;;;4.50;4.00;;;;;-145.03;100.00;62373.16;5076794;28;45690;-85
2022/08/19 05:54:55;;;;;;;;;3.00;3.00;;;;;-145.03;100.00;62373.16;5076607;28;46256;-84
2022/08/19 05:57:20;;;;;;;;;5.00;3.00;;;;;-145.03;100.00;62373.16;5076445;28;45406;-85
2022/08/19 05:59:48;;;;;;;;;3.00;2.25;;;;;-145.03;100.00;62373.16;5076726;28;45499;-84
2022/08/19 06:02:14;;;;;;;;;3.00;3.00;;;;;-145.03;100.00;62373.16;5076882;28;45550;-85
2022/08/19 06:04:42;;;;;;;;;5.00;3.67;;;;;-145.03;100.00;62373.16;5076092;27;46160;-84
2022/08/19 06:07:08;;;;;;;;;5.00;3.25;;;;;-145.03;100.00;62373.16;5076443;28;45551;-84
2022/08/19 06:09:34;;;;;;;;;3.67;3.67;;;;;-145.03;100.00;62373.16;5075245;28;45491;-85
2022/08/19 06:12:02;;;;;;;;;2.00;2.00;;;;;-145.03;100.00;62373.16;5076808;27;45485;-84
2022/08/19 06:14:31;;;;;;;;;3.25;3.00;;;;;-145.03;100.00;62373.16;5076284;28;47176;-84
2022/08/19 06:16:59;;;;;;;;;5.00;2.33;;;;;-145.03;100.00;62373.16;5076371;27;45565;-84
2022/08/19 06:19:25;;;;;;;;;4.25;3.00;;;;;-145.03;100.00;62373.16;5076022;28;45579;-84
2022/08/19 06:21:52;;;;;;;;;2.00;2.00;;;;;-145.03;100.00;62373.16;5076647;27;45470;-84
2022/08/19 06:24:23;;;;;;;;;3.00;2.00;;;;;-145.03;100.00;62373.16;5076212;27;47494;-84
2022/08/19 06:26:51;;;;;;;;;2.75;2.75;;;;;-145.03;100.00;62373.16;5076489;28;45313;-72
2022/08/19 06:29:19;;;;;;;;;3.00;3.00;;;;;-145.03;100.00;62373.16;5076070;28;45445;-72
2022/08/19 06:31:50;;;;;;;;;2.25;2.25;;;;;-145.03;100.00;62373.16;5076473;28;45582;-73
2022/08/19 06:34:17;;;;;;;;;2.75;2.75;;;;;-145.03;100.00;62373.16;5075849;28;45780;-73
2022/08/19 06:36:45;;;;;;;;;4.00;2.00;;;;;-145.03;100.00;62373.16;5076155;28;45483;-73
2022/08/19 06:39:14;;;;;;;;;2.25;2.25;;;;;-145.03;100.00;62373.16;5076141;28;45449;-73
2022/08/19 06:41:44;;;;;;;;;4.50;4.00;;;;;-145.03;100.00;62373.16;5074863;28;45582;-73
2022/08/19 06:44:11;;;;;;;;;3.75;3.75;;;;;-145.03;100.00;62373.16;5075645;27;46265;-72
2022/08/19 06:46:37;;;;;;;;;3.00;3.00;;;;;-145.03;100.00;62373.16;5075963;28;45370;-73
2022/08/19 06:49:03;;;;;;;;;2.00;2.00;;;;;-145.03;100.00;62373.16;5075835;28;45433;-72
2022/08/19 06:51:31;;;;;;;;;2.00;2.00;;;;;-145.03;100.00;62373.16;5076214;28;45455;-72
2022/08/19 06:53:56;;;;;;;;;1.00;1.00;;;;;-145.03;100.00;62373.16;5075987;28;46105;-73
2022/08/19 06:56:30;;;;;;;;;4.50;2.00;;;;;-145.03;100.00;62373.16;5078611;28;45491;-72
2022/08/19 06:58:56;;;;;;;;;4.00;2.00;;;;;-145.03;100.00;62373.16;5079444;28;45692;-72
2022/08/19 07:01:21;;;;;;;;;1.00;1.00;;;;;-145.03;100.00;62373.16;5079446;28;45441;-73
2022/08/19 07:03:47;;;;;;;;;2.75;2.75;;;;;-145.03;100.00;62373.16;5078910;28;47277;-73
2022/08/19 07:06:17;;;;;;;;;2.75;2.75;;;;;-145.03;100.00;62373.16;5077793;28;45465;-72
2022/08/19 07:08:44;;;;;;;;;2.75;2.75;;;;;-145.03;100.00;62373.16;5079463;28;45440;-73
2022/08/19 07:11:12;;;;;;;;;2.00;1.00;;;;;-145.03;100.00;62373.16;5077979;28;45433;-73
2022/08/19 07:13:39;;;;;;;;;1.25;1.00;;;;;-145.03;100.00;62373.16;5077719;28;47157;-72
2022/08/19 07:16:08;;;;;;;;;1.00;1.00;;;;;-145.03;100.00;62373.16;5078974;28;45685;-73
2022/08/19 07:18:35;;;;;;;;;1.25;1.25;;;;;-145.03;100.00;62373.16;5094673;27;45496;-73
2022/08/19 07:21:09;;;;;;;;;1.00;1.00;;;;;-145.03;100.00;62373.16;5079538;27;45392;-72
2022/08/19 07:23:35;;;;;;;;;4.00;2.75;;;;;-145.03;100.00;62373.16;5078858;28;47314;-73
2022/08/19 07:26:31;;;;;;;;;2.00;1.00;;;;;-145.03;100.00;62373.16;5079032;28;45521;-72
2022/08/19 07:28:59;;;;;;;;;1.25;1.00;;;;;-145.03;100.00;62373.16;5074239;28;45561;-73
2022/08/19 07:31:26;;;;;;;;;0.50;0.50;;;;;-145.03;100.00;62373.16;5077566;28;45506;-73
2022/08/19 07:33:55;;;;;;;;;3.25;1.00;;;;;-145.03;100.00;62373.16;5077562;28;47642;-72
2022/08/19 07:36:31;;;;;;;;;1.00;1.00;;;;;-145.03;100.00;62373.16;5078820;28;45442;-72
2022/08/19 07:38:59;;;;;;;;;1.00;1.00;;;;;-145.03;100.00;62373.16;5079062;27;45378;-73
2022/08/19 07:41:28;;;;;;;;;2.00;2.00;;;;;-145.03;100.00;62373.16;5078545;27;45426;-73
2022/08/19 07:43:54;;;;;;;;;0.50;0.50;;;;;-145.03;100.00;62373.16;5078455;27;45382;-72
2022/08/19 07:46:20;;;;;;;;;0.00;0.00;;;;;-145.03;100.00;62373.16;5078438;28;45416;-72
2022/08/19 07:48:48;;;;;;;;;1.00;1.00;;;;;-145.03;100.00;62373.16;5077534;28;45489;-73
2022/08/19 07:51:17;;;;;;;;;1.00;1.00;;;;;-145.03;100.00;62373.16;5077193;28;45460;-72
2022/08/19 07:53:45;;;;;;;;;1.00;1.00;;;;;-145.03;100.00;62373.16;5078323;28;45979;-72
2022/08/19 07:56:11;;;;;;;;;1.00;1.00;;;;;-145.03;100.00;62373.16;5078796;28;45338;-72
2022/08/19 07:58:41;;;;;;;;;3.25;2.00;;;;;-145.03;100.00;62373.16;5078759;28;45464;-72
2022/08/19 08:01:10;;;;;;;;;1.50;0.25;;;;;-145.03;100.00;62373.16;5077469;28;45646;-72
2022/08/19 08:09:15;;;;;;;;;0.00;0.00;;;;;-145.03;100.00;62373.16;5078518;28;45481;-74
2022/08/19 08:12:03;;;;;;;;;0.25;0.25;;;;;-145.03;100.00;62373.16;5078781;28;45384;-74
2022/08/19 08:14:39;;;;;;;;;0.50;0.50;;;;;-145.03;100.00;62373.16;5077441;28;46436;-73
2022/08/19 08:17:05;;;;;;;;;0.00;0.00;;;;;-145.03;100.00;62373.16;5078311;28;45465;-74
2022/08/19 08:19:31;;;;;;;;;0.00;0.00;;;;;-145.03;100.00;62373.16;5078224;28;45544;-74
2022/08/19 08:21:59;;;;;;;;;1.00;1.00;;;;;-145.03;100.00;62373.16;5094368;27;45643;-74
2022/08/19 08:24:26;;;;;;;;;0.00;0.00;;;;;-145.03;100.00;62373.16;5078116;28;46376;-74
2022/08/19 08:26:52;;;;;;;;;1.00;1.00;;;;;-145.03;100.00;62373.16;5077885;28;45505;-73
2022/08/19 08:29:19;;;;;;;;;1.00;1.00;;;;;-145.03;100.00;62373.16;5077905;28;45575;-73
2022/08/19 08:31:46;;;;;;;;;0.50;0.50;;;;;-145.03;100.00;62373.16;5078163;27;45574;-74
2022/08/19 08:34:13;;;;;;;;;1.00;1.00;;;;;-145.03;100.00;62373.16;5077936;28;45494;-74
2022/08/19 08:36:42;;;;;;;;;3.00;1.00;;;;;-145.03;100.00;62373.16;5076272;28;45451;-74
2022/08/19 08:39:16;;;;;;;;;1.00;1.00;;;;;-145.03;100.00;62373.16;5077833;27;45464;-74
2022/08/19 08:42:07;;;;;;;;;0.00;0.00;;;;;-145.03;100.00;62373.16;5078107;28;45680;-74
2022/08/19 08:44:45;;;;;;;;;0.00;0.00;;;;;-145.03;100.00;62373.16;5074581;28;45515;-74
2022/08/19 08:47:15;;;;;;;;;0.25;0.25;;;;;-145.03;100.00;62373.16;5077665;28;45380;-73
2022/08/19 08:49:47;;;;;;;;;1.00;1.00;;;;;-145.03;100.00;62373.16;5077774;28;45478;-74
2022/08/19 08:52:22;;;;;;;;;2.25;1.00;;;;;-145.03;100.00;62373.16;5077795;28;45491;-74
2022/08/19 08:54:50;;;;;;;;;0.00;0.00;;;;;-145.03;100.00;62373.16;5077133;28;46188;-73
2022/08/19 08:57:25;;;;;;;;;1.75;0.50;;;;;-145.03;100.00;62373.16;5076165;28;45647;-74
2022/08/19 08:59:54;;;;;;;;;0.75;0.50;;;;;-145.03;100.00;62373.16;5077408;28;45470;-73
2022/08/19 09:02:19;;;;;;;;;1.00;1.00;;;;;-145.03;100.00;62373.16;5077891;27;45685;-73
2022/08/19 09:04:45;;;;;;;;;0.75;0.75;;;;;-145.03;100.00;62373.16;5077037;28;47311;-74
2022/08/19 09:07:23;;;;;;;;;0.50;0.50;;;;;-145.03;100.00;62373.16;5093103;27;45500;-74
2022/08/19 09:09:50;;;;;;;;;1.00;1.00;;;;;-145.03;100.00;62373.16;5077512;28;45572;-74
2022/08/19 09:12:38;;;;;;;;;0.75;0.75;;;;;-145.03;100.00;62373.16;5077261;28;45362;-74
2022/08/19 09:15:07;;;;;;;;;1.75;1.75;;;;;-145.03;100.00;62373.16;5077175;27;47394;-74
2022/08/19 09:17:34;;;;;;;;;1.00;1.00;;;;;-145.03;100.00;62373.16;5077012;28;45467;-73
2022/08/19 09:20:10;;;;;;;;;1.00;1.00;;;;;-145.03;100.00;62373.16;5077039;27;45453;-74
2022/08/19 09:22:38;;;;;;;;;1.00;1.00;;;;;-145.03;100.00;62373.16;5077832;28;45588;-74
2022/08/19 09:25:04;;;;;;;;;0.25;0.25;;;;;-145.03;100.00;62373.16;5077102;27;46354;-74
2022/08/19 09:27:31;;;;;;;;;1.00;1.00;;;;;-145.03;100.00;62373.16;5076988;27;45417;-74
2022/08/19 09:29:57;;;;;;;;;0.00;0.00;;;;;-145.03;100.00;62373.16;5077163;27;45476;-74
2022/08/19 09:32:23;;;;;;;;;1.50;1.50;;;;;-145.03;100.00;62373.16;5077237;27;45480;-73
2022/08/19 09:34:49;;;;;;;;;2.25;1.25;;;;;-145.03;100.00;62373.16;5076850;28;45471;-74
2022/08/19 09:37:14;;;;;;;;;1.25;1.25;;;;;-145.03;100.00;62373.16;5076786;28;45440;-73
2022/08/19 09:39:40;;;;;;;;;2.00;1.00;;;;;-145.03;100.00;62373.16;5077164;28;45539;-74
2022/08/19 09:42:11;;;;;;;;;1.00;1.00;;;;;-145.03;100.00;62373.16;5076568;27;45418;-74
2022/08/19 09:44:37;;;;;;;;;0.75;0.75;;;;;-145.03;100.00;62373.16;5056479;28;47210;-74
2022/08/19 09:47:03;;;;;;;;;0.50;0.50;;;;;-145.03;100.00;62373.16;5056565;28;45438;-74
2022/08/19 09:49:28;;;;;;;;;0.00;0.00;;;;;-145.03;100.00;62373.16;5056695;28;45460;-73
2022/08/19 09:51:55;;;;;;;;;0.00;0.00;;;;;-145.03;100.00;62373.16;5056731;28;45471;-73
2022/08/19 09:54:21;;;;;;;;;1.00;1.00;;;;;-145.03;100.00;62373.16;5056351;28;46380;-74
2022/08/19 09:56:46;;;;;;;;;1.50;0.00;;;;;-145.03;100.00;62373.16;5088638;27;45436;-74
2022/08/19 09:59:12;;;;;;;;;0.00;0.00;;;;;-145.03;100.00;62373.16;5056354;28;45359;-74
2022/08/19 10:01:38;;;;;;;;;0.25;0.25;;;;;-145.03;100.00;62373.16;5056703;28;45424;-74
2022/08/19 10:04:08;;;;;;;;;0.00;0.00;;;;;-145.03;100.00;62373.16;5056331;28;46393;-74
2022/08/19 10:06:35;;;;;;;;;0.00;0.00;;;;;-145.03;100.00;62373.16;5055988;28;45543;-73
2022/08/19 10:09:00;;;;;;;;;0.00;0.00;;;;;-145.03;100.00;62373.16;5056376;28;45476;-74
2022/08/19 10:11:26;;;;;;;;;0.25;0.25;;;;;-145.03;100.00;62373.16;5056266;28;45545;-74
2022/08/19 10:13:52;;;;;;;;;1.75;0.75;;;;;-145.03;100.00;62373.16;5054872;28;47431;-74
2022/08/19 10:16:21;;;;;;;;;0.00;0.00;;;;;-145.03;100.00;62373.16;5056250;28;45441;-74
2022/08/19 10:18:47;;;;;;;;;1.25;0.50;;;;;-145.03;100.00;62373.16;5056121;28;45464;-73
2022/08/19 10:21:28;;;;;;;;;2.00;1.00;;;;;-145.03;100.00;62373.16;5056331;28;45461;-74
2022/08/19 10:24:01;;;;;;;;;1.50;0.50;;;;;-145.03;100.00;62373.16;5056070;28;46996;-74
2022/08/19 10:26:29;;;;;;;;;0.00;0.00;;;;;-145.03;100.00;62373.16;5055826;28;45410;-74
2022/08/19 10:28:56;;;;;;;;;0.00;0.00;;;;;-145.03;100.00;62373.16;5056163;28;45388;-74
2022/08/19 10:31:30;;;;;;;;;0.00;0.00;;;;;-145.03;100.00;62373.16;5058857;28;45454;-74
2022/08/19 10:33:59;;;;;;;;;0.50;0.50;;;;;-145.03;100.00;62373.16;5059436;28;45450;-74
2022/08/19 10:36:35;;;;;;;;;1.00;1.00;;;;;-145.03;100.00;62373.16;5057891;28;45546;-74
2022/08/19 10:39:05;;;;;;;;;0.00;0.00;;;;;-145.03;100.00;62373.16;5059410;28;45461;-74
2022/08/19 10:41:33;;;;;;;;;1.00;1.00;;;;;-145.03;100.00;62373.16;5075179;28;45614;-74
2022/08/19 10:44:01;;;;;;;;;1.00;1.00;;;;;-145.03;100.00;62373.16;5070491;27;48443;-74
2022/08/19 10:46:32;;;;;;;;;0.00;0.00;;;;;-145.03;100.00;62373.16;5057934;28;45469;-74
2022/08/19 10:48:57;;;;;;;;;0.00;0.00;;;;;-145.03;100.00;62373.16;5059559;28;45604;-74
2022/08/19 10:54:06;;;;;;;;;0.50;0.50;;;;;-145.03;100.00;62373.16;5057753;28;45785;-74
2022/08/19 10:56:52;;;;;;;;;0.00;0.00;;;;;-145.03;100.00;62373.16;5059435;28;45464;-74
2022/08/19 10:59:35;;;;;;;;;1.50;0.50;;;;;-145.03;100.00;62373.16;5059216;28;45401;-74
2022/08/19 11:02:04;;;;;;;;;0.75;0.75;;;;;-145.03;100.00;62373.16;5059305;28;45319;-74
2022/08/19 11:04:29;;;;;;;;;0.00;0.00;;;;;-145.03;100.00;62373.16;5058933;28;47194;-73
2022/08/19 11:06:56;;;;;;;;;0.50;0.50;;;;;-145.03;100.00;62373.16;5059028;28;45492;-74
2022/08/19 11:09:29;;;;;;;;;0.00;0.00;;;;;-145.03;100.00;62373.16;5059060;28;45643;-74
2022/08/19 11:11:56;;;;;;;;;2.00;0.25;;;;;-145.03;100.00;62373.16;5059265;28;45401;-74
2022/08/19 11:14:23;;;;;;;;;0.50;0.50;;;;;-145.03;100.00;62373.16;5058810;28;45443;-74
2022/08/19 11:16:49;;;;;;;;;1.00;0.00;;;;;-145.03;100.00;62373.16;5058809;28;45511;-74
2022/08/19 11:19:18;;;;;;;;;0.00;0.00;;;;;-145.03;100.00;62373.16;5058683;28;45452;-74
2022/08/19 11:21:46;;;;;;;;;0.00;0.00;;;;;-145.03;100.00;62373.16;5059144;28;45427;-74
2022/08/19 11:24:15;;;;;;;;;0.00;0.00;;;;;-145.03;100.00;62373.16;5057170;28;48305;-74
2022/08/19 11:26:42;;;;;;;;;2.00;0.25;;;;;-145.03;100.00;62373.16;5057697;28;45459;-84